sensor_id;sensor_type;location;lat;lon;timestamp;P1;durP1;ratioP1;P2;durP2;ratioP2
39890;SDS011;25564;53.312;9.790;2023-02-16T00:00:52;29.23;;;14.00;;
39890;SDS011;25564;53.312;9.790;2023-02-16T00:03:23;31.40;;;13.50;;
39890;SDS011;25564;53.312;9.790;2023-02-16T00:05:55;33.30;;;14.83;;
39890;SDS011;25564;53.312;9.790;2023-02-16T00:08:26;29.60;;;14.07;;
39890;SDS011;25564;53.312;9.790;2023-02-16T00:10:57;27.43;;;13.90;;
39890;SDS011;25564;53.312;9.790;2023-02-16T00:13:47;33.37;;;14.57;;
39890;SDS011;25564;53.312;9.790;2023-02-16T00:16:20;29.87;;;13.77;;
39890;SDS011;25564;53.312;9.790;2023-02-16T00:18:53;32.40;;;14.07;;
39890;SDS011;25564;53.312;9.790;2023-02-16T00:21:24;27.63;;;13.63;;
39890;SDS011;25564;53.312;9.790;2023-02-16T00:23:55;25.20;;;13.97;;
39890;SDS011;25564;53.312;9.790;2023-02-16T00:26:27;32.67;;;13.23;;
39890;SDS011;25564;53.312;9.790;2023-02-16T00:29:01;27.17;;;13.63;;
39890;SDS011;25564;53.312;9.790;2023-02-16T00:31:32;27.43;;;13.30;;
39890;SDS011;25564;53.312;9.790;2023-02-16T00:34:14;35.10;;;15.13;;
39890;SDS011;25564;53.312;9.790;2023-02-16T00:36:56;30.90;;;13.40;;
39890;SDS011;25564;53.312;9.790;2023-02-16T00:39:29;27.83;;;13.77;;
39890;SDS011;25564;53.312;9.790;2023-02-16T00:42:02;29.03;;;13.50;;
39890;SDS011;25564;53.312;9.790;2023-02-16T00:44:39;36.60;;;15.20;;
39890;SDS011;25564;53.312;9.790;2023-02-16T00:49:48;35.70;;;16.00;;
39890;SDS011;25564;53.312;9.790;2023-02-16T00:55:09;32.73;;;14.77;;
39890;SDS011;25564;53.312;9.790;2023-02-16T01:00:29;31.03;;;14.33;;
39890;SDS011;25564;53.312;9.790;2023-02-16T01:03:05;33.57;;;15.57;;
39890;SDS011;25564;53.312;9.790;2023-02-16T01:05:38;32.17;;;15.03;;
39890;SDS011;25564;53.312;9.790;2023-02-16T01:08:10;29.27;;;14.30;;
39890;SDS011;25564;53.312;9.790;2023-02-16T01:11:03;30.07;;;15.47;;
39890;SDS011;25564;53.312;9.790;2023-02-16T01:13:38;33.37;;;14.07;;
39890;SDS011;25564;53.312;9.790;2023-02-16T01:16:20;33.30;;;14.93;;
39890;SDS011;25564;53.312;9.790;2023-02-16T01:18:54;26.40;;;14.37;;
39890;SDS011;25564;53.312;9.790;2023-02-16T01:21:25;34.13;;;15.90;;
39890;SDS011;25564;53.312;9.790;2023-02-16T01:23:56;33.80;;;16.80;;
39890;SDS011;25564;53.312;9.790;2023-02-16T01:26:28;33.60;;;15.43;;
39890;SDS011;25564;53.312;9.790;2023-02-16T01:29:00;37.97;;;16.93;;
39890;SDS011;25564;53.312;9.790;2023-02-16T01:31:31;35.80;;;16.33;;
39890;SDS011;25564;53.312;9.790;2023-02-16T01:34:03;33.07;;;16.20;;
39890;SDS011;25564;53.312;9.790;2023-02-16T01:36:38;34.50;;;16.10;;
39890;SDS011;25564;53.312;9.790;2023-02-16T01:39:15;36.23;;;15.53;;
39890;SDS011;25564;53.312;9.790;2023-02-16T01:42:01;35.20;;;15.67;;
39890;SDS011;25564;53.312;9.790;2023-02-16T01:44:42;35.73;;;15.60;;
39890;SDS011;25564;53.312;9.790;2023-02-16T01:47:23;36.27;;;16.43;;
39890;SDS011;25564;53.312;9.790;2023-02-16T01:50:10;34.77;;;16.20;;
39890;SDS011;25564;53.312;9.790;2023-02-16T01:52:56;34.88;;;15.02;;
39890;SDS011;25564;53.312;9.790;2023-02-16T01:55:32;33.17;;;15.40;;
39890;SDS011;25564;53.312;9.790;2023-02-16T01:58:14;30.67;;;15.43;;
39890;SDS011;25564;53.312;9.790;2023-02-16T02:04:19;34.23;;;15.07;;
39890;SDS011;25564;53.312;9.790;2023-02-16T02:07:14;36.13;;;14.97;;
39890;SDS011;25564;53.312;9.790;2023-02-16T02:09:55;31.90;;;14.57;;
39890;SDS011;25564;53.312;9.790;2023-02-16T02:15:20;34.10;;;14.55;;
39890;SDS011;25564;53.312;9.790;2023-02-16T02:17:54;32.30;;;16.30;;
39890;SDS011;25564;53.312;9.790;2023-02-16T02:20:40;27.50;;;14.33;;
39890;SDS011;25564;53.312;9.790;2023-02-16T02:24:26;37.47;;;14.93;;
39890;SDS011;25564;53.312;9.790;2023-02-16T02:28:03;39.23;;;15.37;;
39890;SDS011;25564;53.312;9.790;2023-02-16T02:32:47;32.57;;;15.43;;
39890;SDS011;25564;53.312;9.790;2023-02-16T02:38:16;31.87;;;14.73;;
39890;SDS011;25564;53.312;9.790;2023-02-16T02:43:39;32.80;;;15.10;;
39890;SDS011;25564;53.312;9.790;2023-02-16T02:46:30;37.60;;;15.80;;
39890;SDS011;25564;53.312;9.790;2023-02-16T02:49:03;36.30;;;16.70;;
39890;SDS011;25564;53.312;9.790;2023-02-16T02:51:35;35.40;;;14.27;;
39890;SDS011;25564;53.312;9.790;2023-02-16T03:00:31;26.87;;;13.43;;
39890;SDS011;25564;53.312;9.790;2023-02-16T03:03:36;32.20;;;14.50;;
39890;SDS011;25564;53.312;9.790;2023-02-16T03:06:15;28.93;;;14.03;;
39890;SDS011;25564;53.312;9.790;2023-02-16T03:08:52;29.10;;;14.25;;
39890;SDS011;25564;53.312;9.790;2023-02-16T03:11:28;32.07;;;14.20;;
39890;SDS011;25564;53.312;9.790;2023-02-16T03:14:20;32.33;;;15.20;;
39890;SDS011;25564;53.312;9.790;2023-02-16T03:17:07;32.80;;;14.83;;
39890;SDS011;25564;53.312;9.790;2023-02-16T03:20:00;33.13;;;14.87;;
39890;SDS011;25564;53.312;9.790;2023-02-16T03:22:54;32.50;;;14.60;;
39890;SDS011;25564;53.312;9.790;2023-02-16T03:25:47;36.87;;;14.40;;
39890;SDS011;25564;53.312;9.790;2023-02-16T03:28:38;35.00;;;16.50;;
39890;SDS011;25564;53.312;9.790;2023-02-16T03:31:32;34.57;;;14.10;;
39890;SDS011;25564;53.312;9.790;2023-02-16T03:34:05;33.07;;;14.63;;
39890;SDS011;25564;53.312;9.790;2023-02-16T03:36:39;33.43;;;16.33;;
39890;SDS011;25564;53.312;9.790;2023-02-16T03:39:12;40.67;;;17.13;;
39890;SDS011;25564;53.312;9.790;2023-02-16T03:41:45;32.87;;;14.70;;
39890;SDS011;25564;53.312;9.790;2023-02-16T03:44:20;32.90;;;15.73;;
39890;SDS011;25564;53.312;9.790;2023-02-16T03:46:52;34.60;;;14.73;;
39890;SDS011;25564;53.312;9.790;2023-02-16T03:49:23;36.23;;;16.93;;
39890;SDS011;25564;53.312;9.790;2023-02-16T03:51:55;31.30;;;14.67;;
39890;SDS011;25564;53.312;9.790;2023-02-16T03:54:26;39.90;;;16.90;;
39890;SDS011;25564;53.312;9.790;2023-02-16T03:56:57;37.20;;;17.27;;
39890;SDS011;25564;53.312;9.790;2023-02-16T03:59:28;33.23;;;16.63;;
39890;SDS011;25564;53.312;9.790;2023-02-16T04:02:00;36.07;;;15.77;;
39890;SDS011;25564;53.312;9.790;2023-02-16T04:04:31;39.77;;;17.10;;
39890;SDS011;25564;53.312;9.790;2023-02-16T04:07:03;41.57;;;16.37;;
39890;SDS011;25564;53.312;9.790;2023-02-16T04:09:34;35.03;;;16.47;;
39890;SDS011;25564;53.312;9.790;2023-02-16T04:12:05;36.97;;;15.87;;
39890;SDS011;25564;53.312;9.790;2023-02-16T04:14:56;37.67;;;16.87;;
39890;SDS011;25564;53.312;9.790;2023-02-16T04:17:28;37.80;;;16.17;;
39890;SDS011;25564;53.312;9.790;2023-02-16T04:19:59;33.30;;;16.67;;
39890;SDS011;25564;53.312;9.790;2023-02-16T04:22:31;35.33;;;16.30;;
39890;SDS011;25564;53.312;9.790;2023-02-16T04:25:02;36.27;;;16.50;;
39890;SDS011;25564;53.312;9.790;2023-02-16T04:27:34;33.57;;;15.70;;
39890;SDS011;25564;53.312;9.790;2023-02-16T04:30:07;33.00;;;15.13;;
39890;SDS011;25564;53.312;9.790;2023-02-16T04:32:43;32.57;;;15.73;;
39890;SDS011;25564;53.312;9.790;2023-02-16T04:35:15;35.40;;;16.50;;
39890;SDS011;25564;53.312;9.790;2023-02-16T04:37:47;35.50;;;16.10;;
39890;SDS011;25564;53.312;9.790;2023-02-16T04:40:19;38.33;;;17.63;;
39890;SDS011;25564;53.312;9.790;2023-02-16T04:42:50;35.30;;;17.43;;
39890;SDS011;25564;53.312;9.790;2023-02-16T04:45:21;35.87;;;16.00;;
39890;SDS011;25564;53.312;9.790;2023-02-16T04:47:53;39.07;;;17.67;;
39890;SDS011;25564;53.312;9.790;2023-02-16T04:50:24;39.37;;;18.57;;
39890;SDS011;25564;53.312;9.790;2023-02-16T04:52:55;32.50;;;15.80;;
39890;SDS011;25564;53.312;9.790;2023-02-16T04:55:26;40.57;;;18.20;;
39890;SDS011;25564;53.312;9.790;2023-02-16T04:57:58;33.47;;;16.07;;
39890;SDS011;25564;53.312;9.790;2023-02-16T05:00:29;33.20;;;16.10;;
39890;SDS011;25564;53.312;9.790;2023-02-16T05:03:00;33.27;;;16.67;;
39890;SDS011;25564;53.312;9.790;2023-02-16T05:05:32;38.03;;;16.33;;
39890;SDS011;25564;53.312;9.790;2023-02-16T05:08:05;38.90;;;18.63;;
39890;SDS011;25564;53.312;9.790;2023-02-16T05:10:36;44.30;;;18.17;;
39890;SDS011;25564;53.312;9.790;2023-02-16T05:13:08;37.27;;;18.00;;
39890;SDS011;25564;53.312;9.790;2023-02-16T05:15:59;42.07;;;17.50;;
39890;SDS011;25564;53.312;9.790;2023-02-16T05:18:30;46.70;;;20.40;;
39890;SDS011;25564;53.312;9.790;2023-02-16T05:21:01;37.17;;;17.47;;
39890;SDS011;25564;53.312;9.790;2023-02-16T05:23:51;36.43;;;17.63;;
39890;SDS011;25564;53.312;9.790;2023-02-16T05:26:23;39.50;;;19.03;;
39890;SDS011;25564;53.312;9.790;2023-02-16T05:28:54;35.67;;;17.77;;
39890;SDS011;25564;53.312;9.790;2023-02-16T05:31:25;37.07;;;17.77;;
39890;SDS011;25564;53.312;9.790;2023-02-16T05:33:58;39.47;;;18.53;;
39890;SDS011;25564;53.312;9.790;2023-02-16T05:36:29;36.60;;;17.87;;
39890;SDS011;25564;53.312;9.790;2023-02-16T05:39:01;38.30;;;18.83;;
39890;SDS011;25564;53.312;9.790;2023-02-16T05:41:32;40.77;;;18.53;;
39890;SDS011;25564;53.312;9.790;2023-02-16T05:44:04;38.57;;;17.70;;
39890;SDS011;25564;53.312;9.790;2023-02-16T05:46:37;42.53;;;19.47;;
39890;SDS011;25564;53.312;9.790;2023-02-16T05:49:09;42.03;;;19.53;;
39890;SDS011;25564;53.312;9.790;2023-02-16T05:51:41;36.83;;;19.17;;
39890;SDS011;25564;53.312;9.790;2023-02-16T05:54:13;40.03;;;17.23;;
39890;SDS011;25564;53.312;9.790;2023-02-16T05:56:48;39.53;;;18.73;;
39890;SDS011;25564;53.312;9.790;2023-02-16T05:59:21;42.17;;;18.97;;
39890;SDS011;25564;53.312;9.790;2023-02-16T06:01:53;42.63;;;18.90;;
39890;SDS011;25564;53.312;9.790;2023-02-16T06:04:24;46.77;;;19.40;;
39890;SDS011;25564;53.312;9.790;2023-02-16T06:06:55;39.40;;;19.07;;
39890;SDS011;25564;53.312;9.790;2023-02-16T06:09:27;40.50;;;20.30;;
39890;SDS011;25564;53.312;9.790;2023-02-16T06:12:02;43.90;;;19.87;;
39890;SDS011;25564;53.312;9.790;2023-02-16T06:14:36;42.13;;;18.73;;
39890;SDS011;25564;53.312;9.790;2023-02-16T06:17:07;42.10;;;19.67;;
39890;SDS011;25564;53.312;9.790;2023-02-16T06:19:39;47.10;;;22.47;;
39890;SDS011;25564;53.312;9.790;2023-02-16T06:22:10;42.20;;;19.33;;
39890;SDS011;25564;53.312;9.790;2023-02-16T06:24:42;46.10;;;21.10;;
39890;SDS011;25564;53.312;9.790;2023-02-16T06:27:13;43.20;;;19.47;;
39890;SDS011;25564;53.312;9.790;2023-02-16T06:29:44;44.80;;;20.77;;
39890;SDS011;25564;53.312;9.790;2023-02-16T06:32:15;42.20;;;20.27;;
39890;SDS011;25564;53.312;9.790;2023-02-16T06:34:49;36.83;;;19.57;;
39890;SDS011;25564;53.312;9.790;2023-02-16T06:37:23;40.93;;;19.67;;
39890;SDS011;25564;53.312;9.790;2023-02-16T06:39:56;44.37;;;19.80;;
39890;SDS011;25564;53.312;9.790;2023-02-16T06:42:27;42.37;;;20.30;;
39890;SDS011;25564;53.312;9.790;2023-02-16T06:44:59;43.13;;;19.87;;
39890;SDS011;25564;53.312;9.790;2023-02-16T06:47:30;48.27;;;21.73;;
39890;SDS011;25564;53.312;9.790;2023-02-16T06:50:02;45.37;;;21.33;;
39890;SDS011;25564;53.312;9.790;2023-02-16T06:52:34;52.67;;;23.73;;
39890;SDS011;25564;53.312;9.790;2023-02-16T06:55:06;46.77;;;21.57;;
39890;SDS011;25564;53.312;9.790;2023-02-16T06:57:38;49.77;;;22.97;;
39890;SDS011;25564;53.312;9.790;2023-02-16T07:00:10;43.77;;;21.83;;
39890;SDS011;25564;53.312;9.790;2023-02-16T07:02:43;42.50;;;21.20;;
39890;SDS011;25564;53.312;9.790;2023-02-16T07:05:16;44.37;;;20.03;;
39890;SDS011;25564;53.312;9.790;2023-02-16T07:07:47;42.67;;;20.57;;
39890;SDS011;25564;53.312;9.790;2023-02-16T07:10:19;50.67;;;21.83;;
39890;SDS011;25564;53.312;9.790;2023-02-16T07:12:50;49.30;;;22.70;;
39890;SDS011;25564;53.312;9.790;2023-02-16T07:15:21;44.90;;;22.20;;
39890;SDS011;25564;53.312;9.790;2023-02-16T07:17:53;52.23;;;25.00;;
39890;SDS011;25564;53.312;9.790;2023-02-16T07:20:24;39.83;;;21.50;;
39890;SDS011;25564;53.312;9.790;2023-02-16T07:22:56;55.43;;;23.30;;
39890;SDS011;25564;53.312;9.790;2023-02-16T07:25:28;50.53;;;22.83;;
39890;SDS011;25564;53.312;9.790;2023-02-16T07:27:59;52.10;;;23.53;;
39890;SDS011;25564;53.312;9.790;2023-02-16T07:30:30;54.03;;;21.83;;
39890;SDS011;25564;53.312;9.790;2023-02-16T07:33:02;41.17;;;21.87;;
39890;SDS011;25564;53.312;9.790;2023-02-16T07:35:34;41.20;;;21.67;;
39890;SDS011;25564;53.312;9.790;2023-02-16T07:38:06;47.73;;;22.17;;
39890;SDS011;25564;53.312;9.790;2023-02-16T07:40:38;54.33;;;21.53;;
39890;SDS011;25564;53.312;9.790;2023-02-16T07:43:09;44.80;;;21.70;;
39890;SDS011;25564;53.312;9.790;2023-02-16T07:45:40;45.03;;;22.60;;
39890;SDS011;25564;53.312;9.790;2023-02-16T07:48:12;47.17;;;21.57;;
39890;SDS011;25564;53.312;9.790;2023-02-16T07:50:44;37.73;;;20.70;;
39890;SDS011;25564;53.312;9.790;2023-02-16T07:53:15;48.77;;;20.87;;
39890;SDS011;25564;53.312;9.790;2023-02-16T07:55:46;44.97;;;21.80;;
39890;SDS011;25564;53.312;9.790;2023-02-16T07:58:17;40.50;;;20.90;;
39890;SDS011;25564;53.312;9.790;2023-02-16T08:01:06;42.83;;;20.87;;
39890;SDS011;25564;53.312;9.790;2023-02-16T08:03:39;45.30;;;21.70;;
39890;SDS011;25564;53.312;9.790;2023-02-16T08:06:10;44.20;;;22.70;;
39890;SDS011;25564;53.312;9.790;2023-02-16T08:08:42;44.03;;;20.37;;
39890;SDS011;25564;53.312;9.790;2023-02-16T08:11:21;41.33;;;20.67;;
39890;SDS011;25564;53.312;9.790;2023-02-16T08:13:54;46.60;;;22.50;;
39890;SDS011;25564;53.312;9.790;2023-02-16T08:16:26;40.87;;;20.90;;
39890;SDS011;25564;53.312;9.790;2023-02-16T08:18:59;44.37;;;22.17;;
39890;SDS011;25564;53.312;9.790;2023-02-16T08:21:31;44.63;;;22.03;;
39890;SDS011;25564;53.312;9.790;2023-02-16T08:24:05;42.43;;;21.67;;
39890;SDS011;25564;53.312;9.790;2023-02-16T08:26:38;40.43;;;20.00;;
39890;SDS011;25564;53.312;9.790;2023-02-16T08:29:11;38.10;;;19.37;;
39890;SDS011;25564;53.312;9.790;2023-02-16T08:31:43;40.30;;;20.30;;
39890;SDS011;25564;53.312;9.790;2023-02-16T08:34:18;41.77;;;20.83;;
39890;SDS011;25564;53.312;9.790;2023-02-16T08:36:51;41.30;;;20.47;;
39890;SDS011;25564;53.312;9.790;2023-02-16T08:39:27;40.00;;;19.57;;
39890;SDS011;25564;53.312;9.790;2023-02-16T08:42:01;44.90;;;20.60;;
39890;SDS011;25564;53.312;9.790;2023-02-16T08:44:33;38.83;;;20.13;;
39890;SDS011;25564;53.312;9.790;2023-02-16T08:47:05;45.07;;;20.43;;
39890;SDS011;25564;53.312;9.790;2023-02-16T08:49:36;39.10;;;22.03;;
39890;SDS011;25564;53.312;9.790;2023-02-16T08:52:09;37.93;;;19.83;;
39890;SDS011;25564;53.312;9.790;2023-02-16T08:54:42;38.77;;;19.67;;
39890;SDS011;25564;53.312;9.790;2023-02-16T08:57:13;40.07;;;19.07;;
39890;SDS011;25564;53.312;9.790;2023-02-16T08:59:45;39.83;;;19.10;;
39890;SDS011;25564;53.312;9.790;2023-02-16T09:02:37;43.90;;;18.97;;
39890;SDS011;25564;53.312;9.790;2023-02-16T09:05:08;38.07;;;18.43;;
39890;SDS011;25564;53.312;9.790;2023-02-16T09:07:40;44.17;;;22.83;;
39890;SDS011;25564;53.312;9.790;2023-02-16T09:10:11;46.67;;;23.07;;
39890;SDS011;25564;53.312;9.790;2023-02-16T09:12:43;40.20;;;20.37;;
39890;SDS011;25564;53.312;9.790;2023-02-16T09:15:18;40.43;;;21.57;;
39890;SDS011;25564;53.312;9.790;2023-02-16T09:17:50;48.10;;;23.07;;
39890;SDS011;25564;53.312;9.790;2023-02-16T09:20:22;44.27;;;22.23;;
39890;SDS011;25564;53.312;9.790;2023-02-16T09:22:54;42.13;;;19.83;;
39890;SDS011;25564;53.312;9.790;2023-02-16T09:25:25;41.87;;;20.77;;
39890;SDS011;25564;53.312;9.790;2023-02-16T09:27:56;42.10;;;21.60;;
39890;SDS011;25564;53.312;9.790;2023-02-16T09:30:27;38.17;;;20.63;;
39890;SDS011;25564;53.312;9.790;2023-02-16T09:32:59;38.43;;;20.23;;
39890;SDS011;25564;53.312;9.790;2023-02-16T09:35:31;43.60;;;21.23;;
39890;SDS011;25564;53.312;9.790;2023-02-16T09:38:02;41.70;;;20.07;;
39890;SDS011;25564;53.312;9.790;2023-02-16T09:40:35;36.83;;;20.57;;
39890;SDS011;25564;53.312;9.790;2023-02-16T09:45:53;38.70;;;19.00;;
39890;SDS011;25564;53.312;9.790;2023-02-16T09:51:16;48.60;;;23.73;;
39890;SDS011;25564;53.312;9.790;2023-02-16T09:54:13;40.63;;;19.73;;
39890;SDS011;25564;53.312;9.790;2023-02-16T09:56:54;35.17;;;19.17;;
39890;SDS011;25564;53.312;9.790;2023-02-16T09:59:51;41.53;;;19.53;;
39890;SDS011;25564;53.312;9.790;2023-02-16T10:02:30;34.95;;;18.05;;
39890;SDS011;25564;53.312;9.790;2023-02-16T10:05:22;38.75;;;20.35;;
39890;SDS011;25564;53.312;9.790;2023-02-16T10:08:42;37.03;;;19.03;;
39890;SDS011;25564;53.312;9.790;2023-02-16T10:11:04;38.43;;;18.77;;
39890;SDS011;25564;53.312;9.790;2023-02-16T10:14:04;41.17;;;19.30;;
39890;SDS011;25564;53.312;9.790;2023-02-16T10:16:49;35.42;;;19.77;;
39890;SDS011;25564;53.312;9.790;2023-02-16T10:19:31;39.07;;;21.00;;
39890;SDS011;25564;53.312;9.790;2023-02-16T10:22:11;38.80;;;20.47;;
39890;SDS011;25564;53.312;9.790;2023-02-16T10:24:57;45.93;;;22.47;;
39890;SDS011;25564;53.312;9.790;2023-02-16T10:27:34;41.70;;;21.90;;
39890;SDS011;25564;53.312;9.790;2023-02-16T10:30:12;37.03;;;20.57;;
39890;SDS011;25564;53.312;9.790;2023-02-16T10:32:55;41.57;;;22.67;;
39890;SDS011;25564;53.312;9.790;2023-02-16T10:35:44;41.43;;;22.03;;
39890;SDS011;25564;53.312;9.790;2023-02-16T10:38:21;37.88;;;20.40;;
39890;SDS011;25564;53.312;9.790;2023-02-16T10:44:12;37.47;;;19.30;;
39890;SDS011;25564;53.312;9.790;2023-02-16T10:46:51;36.80;;;19.67;;
39890;SDS011;25564;53.312;9.790;2023-02-16T10:49:27;40.30;;;18.37;;
39890;SDS011;25564;53.312;9.790;2023-02-16T10:52:01;39.53;;;19.63;;
39890;SDS011;25564;53.312;9.790;2023-02-16T10:54:33;34.27;;;18.77;;
39890;SDS011;25564;53.312;9.790;2023-02-16T10:57:06;38.47;;;19.83;;
39890;SDS011;25564;53.312;9.790;2023-02-16T10:59:50;32.00;;;19.13;;
39890;SDS011;25564;53.312;9.790;2023-02-16T11:02:28;33.50;;;19.17;;
39890;SDS011;25564;53.312;9.790;2023-02-16T11:07:56;33.47;;;17.93;;
39890;SDS011;25564;53.312;9.790;2023-02-16T11:10:37;39.73;;;19.23;;
39890;SDS011;25564;53.312;9.790;2023-02-16T11:13:24;36.43;;;19.13;;
39890;SDS011;25564;53.312;9.790;2023-02-16T11:16:05;31.47;;;17.37;;
39890;SDS011;25564;53.312;9.790;2023-02-16T11:18:42;33.30;;;17.53;;
39890;SDS011;25564;53.312;9.790;2023-02-16T11:21:16;36.37;;;18.10;;
39890;SDS011;25564;53.312;9.790;2023-02-16T11:23:57;34.03;;;19.13;;
39890;SDS011;25564;53.312;9.790;2023-02-16T11:26:32;41.97;;;19.03;;
39890;SDS011;25564;53.312;9.790;2023-02-16T11:29:18;34.00;;;17.90;;
39890;SDS011;25564;53.312;9.790;2023-02-16T11:31:50;35.37;;;18.97;;
39890;SDS011;25564;53.312;9.790;2023-02-16T11:34:27;38.47;;;18.80;;
39890;SDS011;25564;53.312;9.790;2023-02-16T11:37:25;35.60;;;18.37;;
39890;SDS011;25564;53.312;9.790;2023-02-16T11:40:04;33.73;;;18.57;;
39890;SDS011;25564;53.312;9.790;2023-02-16T11:42:52;36.73;;;18.03;;
39890;SDS011;25564;53.312;9.790;2023-02-16T11:48:06;37.37;;;18.37;;
39890;SDS011;25564;53.312;9.790;2023-02-16T11:50:55;33.37;;;17.83;;
39890;SDS011;25564;53.312;9.790;2023-02-16T11:53:31;37.57;;;19.73;;
39890;SDS011;25564;53.312;9.790;2023-02-16T11:58:42;34.57;;;17.90;;
39890;SDS011;25564;53.312;9.790;2023-02-16T12:01:34;36.67;;;18.87;;
39890;SDS011;25564;53.312;9.790;2023-02-16T12:04:15;32.17;;;17.13;;
39890;SDS011;25564;53.312;9.790;2023-02-16T12:07:20;41.23;;;18.47;;
39890;SDS011;25564;53.312;9.790;2023-02-16T12:15:47;37.03;;;20.47;;
39890;SDS011;25564;53.312;9.790;2023-02-16T12:18:37;37.63;;;18.83;;
39890;SDS011;25564;53.312;9.790;2023-02-16T12:21:21;40.77;;;19.87;;
39890;SDS011;25564;53.312;9.790;2023-02-16T12:26:58;38.67;;;19.27;;
39890;SDS011;25564;53.312;9.790;2023-02-16T12:32:17;32.20;;;18.97;;
39890;SDS011;25564;53.312;9.790;2023-02-16T12:35:17;34.87;;;19.07;;
39890;SDS011;25564;53.312;9.790;2023-02-16T12:44:02;40.13;;;19.20;;
39890;SDS011;25564;53.312;9.790;2023-02-16T12:46:42;44.83;;;21.30;;
39890;SDS011;25564;53.312;9.790;2023-02-16T12:49:25;42.57;;;18.90;;
39890;SDS011;25564;53.312;9.790;2023-02-16T12:52:06;39.03;;;20.87;;
39890;SDS011;25564;53.312;9.790;2023-02-16T12:54:49;39.47;;;20.80;;
39890;SDS011;25564;53.312;9.790;2023-02-16T12:57:24;38.70;;;19.27;;
39890;SDS011;25564;53.312;9.790;2023-02-16T13:00:03;39.23;;;19.53;;
39890;SDS011;25564;53.312;9.790;2023-02-16T13:02:48;41.05;;;20.27;;
39890;SDS011;25564;53.312;9.790;2023-02-16T13:05:30;48.60;;;20.70;;
39890;SDS011;25564;53.312;9.790;2023-02-16T13:08:14;35.77;;;19.07;;
39890;SDS011;25564;53.312;9.790;2023-02-16T13:11:02;39.83;;;21.13;;
39890;SDS011;25564;53.312;9.790;2023-02-16T13:13:39;39.80;;;20.23;;
39890;SDS011;25564;53.312;9.790;2023-02-16T13:16:17;38.60;;;20.20;;
39890;SDS011;25564;53.312;9.790;2023-02-16T13:19:01;41.47;;;21.27;;
39890;SDS011;25564;53.312;9.790;2023-02-16T13:24:40;43.63;;;22.13;;
39890;SDS011;25564;53.312;9.790;2023-02-16T13:27:27;42.53;;;21.83;;
39890;SDS011;25564;53.312;9.790;2023-02-16T13:42:01;41.67;;;20.93;;
39890;SDS011;25564;53.312;9.790;2023-02-16T13:44:47;44.70;;;20.33;;
39890;SDS011;25564;53.312;9.790;2023-02-16T13:47:40;40.80;;;21.47;;
39890;SDS011;25564;53.312;9.790;2023-02-16T13:52:54;38.63;;;21.10;;
39890;SDS011;25564;53.312;9.790;2023-02-16T13:55:28;41.00;;;21.67;;
39890;SDS011;25564;53.312;9.790;2023-02-16T14:00:57;42.40;;;21.40;;
39890;SDS011;25564;53.312;9.790;2023-02-16T14:03:36;43.33;;;20.83;;
39890;SDS011;25564;53.312;9.790;2023-02-16T14:14:33;39.30;;;21.33;;
39890;SDS011;25564;53.312;9.790;2023-02-16T14:17:15;43.13;;;21.53;;
39890;SDS011;25564;53.312;9.790;2023-02-16T14:20:00;46.20;;;20.87;;
39890;SDS011;25564;53.312;9.790;2023-02-16T14:22:47;38.80;;;21.60;;
39890;SDS011;25564;53.312;9.790;2023-02-16T14:27:53;40.60;;;21.60;;
39890;SDS011;25564;53.312;9.790;2023-02-16T14:36:05;46.80;;;23.63;;
39890;SDS011;25564;53.312;9.790;2023-02-16T14:38:44;44.20;;;23.47;;
39890;SDS011;25564;53.312;9.790;2023-02-16T14:43:58;41.50;;;22.77;;
39890;SDS011;25564;53.312;9.790;2023-02-16T14:47:01;44.60;;;22.07;;
39890;SDS011;25564;53.312;9.790;2023-02-16T14:58:27;45.03;;;21.23;;
39890;SDS011;25564;53.312;9.790;2023-02-16T15:01:04;44.23;;;22.30;;
39890;SDS011;25564;53.312;9.790;2023-02-16T15:06:20;40.63;;;21.23;;
39890;SDS011;25564;53.312;9.790;2023-02-16T15:08:56;38.90;;;20.67;;
39890;SDS011;25564;53.312;9.790;2023-02-16T15:14:09;41.00;;;20.80;;
39890;SDS011;25564;53.312;9.790;2023-02-16T15:16:41;48.37;;;23.90;;
39890;SDS011;25564;53.312;9.790;2023-02-16T15:19:18;43.80;;;22.27;;
39890;SDS011;25564;53.312;9.790;2023-02-16T15:24:56;43.47;;;22.33;;
39890;SDS011;25564;53.312;9.790;2023-02-16T15:27:28;44.03;;;22.73;;
39890;SDS011;25564;53.312;9.790;2023-02-16T15:30:04;44.60;;;23.80;;
39890;SDS011;25564;53.312;9.790;2023-02-16T15:32:37;50.13;;;24.90;;
39890;SDS011;25564;53.312;9.790;2023-02-16T15:35:12;45.87;;;23.93;;
39890;SDS011;25564;53.312;9.790;2023-02-16T15:38:00;52.13;;;24.53;;
39890;SDS011;25564;53.312;9.790;2023-02-16T15:40:39;42.55;;;23.35;;
39890;SDS011;25564;53.312;9.790;2023-02-16T15:49:25;50.40;;;25.70;;
39890;SDS011;25564;53.312;9.790;2023-02-16T15:51:57;49.33;;;24.67;;
39890;SDS011;25564;53.312;9.790;2023-02-16T15:54:30;52.47;;;26.03;;
39890;SDS011;25564;53.312;9.790;2023-02-16T15:57:25;51.38;;;25.83;;
39890;SDS011;25564;53.312;9.790;2023-02-16T16:00:03;47.83;;;25.53;;
39890;SDS011;25564;53.312;9.790;2023-02-16T16:02:39;56.67;;;28.23;;
39890;SDS011;25564;53.312;9.790;2023-02-16T16:05:24;57.25;;;27.25;;
39890;SDS011;25564;53.312;9.790;2023-02-16T16:07:59;55.70;;;27.30;;
39890;SDS011;25564;53.312;9.790;2023-02-16T16:10:33;51.27;;;27.03;;
39890;SDS011;25564;53.312;9.790;2023-02-16T16:13:12;52.37;;;26.67;;
39890;SDS011;25564;53.312;9.790;2023-02-16T16:15:48;45.63;;;24.07;;
39890;SDS011;25564;53.312;9.790;2023-02-16T16:21:18;53.10;;;27.50;;
39890;SDS011;25564;53.312;9.790;2023-02-16T16:24:05;60.73;;;27.33;;
39890;SDS011;25564;53.312;9.790;2023-02-16T16:26:49;54.73;;;26.83;;
39890;SDS011;25564;53.312;9.790;2023-02-16T16:29:27;56.63;;;28.07;;
39890;SDS011;25564;53.312;9.790;2023-02-16T16:32:02;52.67;;;24.70;;
39890;SDS011;25564;53.312;9.790;2023-02-16T16:34:38;53.53;;;27.00;;
39890;SDS011;25564;53.312;9.790;2023-02-16T16:40:41;43.17;;;22.50;;
39890;SDS011;25564;53.312;9.790;2023-02-16T16:45:38;45.27;;;22.63;;
39890;SDS011;25564;53.312;9.790;2023-02-16T16:48:31;44.60;;;22.40;;
39890;SDS011;25564;53.312;9.790;2023-02-16T16:51:13;41.63;;;21.40;;
39890;SDS011;25564;53.312;9.790;2023-02-16T16:56:36;42.53;;;20.53;;
39890;SDS011;25564;53.312;9.790;2023-02-16T16:59:09;37.13;;;18.83;;
39890;SDS011;25564;53.312;9.790;2023-02-16T17:01:41;37.23;;;18.23;;
39890;SDS011;25564;53.312;9.790;2023-02-16T17:04:12;34.37;;;18.47;;
39890;SDS011;25564;53.312;9.790;2023-02-16T17:06:43;42.27;;;19.37;;
39890;SDS011;25564;53.312;9.790;2023-02-16T17:09:15;35.20;;;19.50;;
39890;SDS011;25564;53.312;9.790;2023-02-16T17:11:47;35.67;;;19.57;;
39890;SDS011;25564;53.312;9.790;2023-02-16T17:14:18;39.93;;;18.90;;
39890;SDS011;25564;53.312;9.790;2023-02-16T17:16:51;45.97;;;22.03;;
39890;SDS011;25564;53.312;9.790;2023-02-16T17:19:23;42.57;;;19.73;;
39890;SDS011;25564;53.312;9.790;2023-02-16T17:21:56;47.47;;;20.90;;
39890;SDS011;25564;53.312;9.790;2023-02-16T17:24:27;43.53;;;20.90;;
39890;SDS011;25564;53.312;9.790;2023-02-16T17:26:58;45.73;;;21.67;;
39890;SDS011;25564;53.312;9.790;2023-02-16T17:29:30;43.63;;;22.57;;
39890;SDS011;25564;53.312;9.790;2023-02-16T17:32:01;46.40;;;21.67;;
39890;SDS011;25564;53.312;9.790;2023-02-16T17:34:33;46.47;;;21.30;;